Flight Track Log - Related Links

Times and Time Zones

All times are in EDT time to prevent confusion due to time zone crossing. See the UAL5915 flight status page for this flight to view local times or setup timezone preferences in your user account.

Time Position Orientation Groundspeed Altitude Reporting Facility
EDT Latitude Longitude Course Direction KTS MPH feet Rate Location/Type
Tue 02:19:42 PM 30.7550 -88.2881 North 192 221 2,300  Level Houston Center
Tue 02:20:44 PM 30.8069 -88.2358 41° Northeast 236 272 3,700 1,694 Climbing Houston Center
Tue 02:21:46 PM 30.8603 -88.1747 45° Northeast 266 306 5,800 2,177 Climbing Houston Center
Tue 02:22:48 PM 30.9258 -88.0994 45° Northeast 277 319 8,200 2,081 Climbing Houston Center
Tue 02:23:50 PM 30.9958 -88.0650 23° Northeast 288 331 10,100 1,258 Climbing Houston Center
Tue 02:24:52 PM 31.0781 -88.0472 10° North 301 346 10,800 774 Climbing Houston Center
Tue 02:25:00 PM 31.3666 -88.2253 North  Level Estimated
Tue 02:25:54 PM 31.1711 -88.0253 11° North 335 386 11,700  Level Houston Center
Tue 02:26:56 PM 31.2872 -87.9981 11° North 351 404 13,200 1,355 Climbing Houston Center
Tue 02:27:58 PM 31.3850 -87.9753 11° North 353 406 14,500 1,258 Climbing Houston Center
Tue 02:29:00 PM 31.4825 -87.9522 11° North 355 409 15,800 1,258 Climbing Houston Center
Tue 02:30:02 PM 31.5794 -87.9306 11° North 356 410 17,100 1,065 Climbing Houston Center
Tue 02:31:04 PM 31.6775 -87.9075 11° North 357 411 18,000 1,008 Climbing Houston Center
Tue 02:32:07 PM 31.7975 -87.8850 North 354 407 19,200 1,073 Climbing Atlanta Center
Tue 02:33:07 PM 31.9003 -87.8622 11° North 359 413 20,200 1,000 Climbing Atlanta Center
Tue 02:34:07 PM 32.0053 -87.8400 10° North 359 413 21,200 1,000 Climbing Atlanta Center
Tue 02:35:07 PM 32.1086 -87.8125 13° North 371 427 22,200 1,000 Climbing Atlanta Center
Tue 02:36:07 PM 32.2136 -87.7897 10° North 377 434 23,200 1,150 Climbing Atlanta Center
Tue 02:37:07 PM 32.3131 -87.7400 23° Northeast 377 434 24,500 1,400 Climbing Atlanta Center
Tue 02:38:07 PM 32.3844 -87.6544 45° Northeast 360 414 26,000 1,385 Climbing Atlanta Center
Tue 02:38:38 PM 32.4108 -87.6103 55° Northeast 373 429 26,600 1,032 Climbing Memphis Center
Tue 02:39:40 PM 32.4753 -87.5169 51° Northeast 370 426 27,600 1,016 Climbing Memphis Center
Tue 02:40:42 PM 32.5361 -87.4200 53° Northeast 368 423 28,700 1,113 Climbing Memphis Center
Tue 02:41:44 PM 32.6344 -87.3344 36° Northeast 369 425 29,900 968 Climbing Memphis Center
Tue 02:42:46 PM 32.7222 -87.3014 18° North 369 425 30,700 968 Climbing Memphis Center
Tue 02:43:48 PM 32.8381 -87.2522 20° North 369 425 31,900 1,056 Climbing Memphis Center
Tue 02:44:51 PM 32.9361 -87.2128 19° North 370 426 32,900 960 Climbing Memphis Center
Tue 02:45:53 PM 33.0336 -87.1708 20° North 371 427 33,900 968 Climbing Memphis Center
Tue 02:46:55 PM 33.1306 -87.1294 20° North 371 427 34,900 532 Climbing Memphis Center
Tue 02:47:57 PM 33.2292 -87.0875 20° North 373 429 35,000 48 Climbing Memphis Center
Tue 02:48:59 PM 33.3328 -87.0447 19° North 389 448 35,000  Level Memphis Center
Tue 02:50:07 PM 33.4533 -87.1061 337° Northwest 372 428 35,000  Level Atlanta Center
Tue 02:51:07 PM 33.5194 -87.2231 304° West 365 420 35,000 232 Level Atlanta Center
Tue 02:53:08 PM 33.6558 -87.4656 304° West 435 501 35,700 328 Climbing Memphis Center
Tue 02:54:10 PM 33.7192 -87.5811 303° West 422 486 36,000 145 Climbing Memphis Center
Tue 02:55:12 PM 33.7869 -87.7006 304° West 424 488 36,000  Level Memphis Center
Tue 02:56:14 PM 33.8658 -87.8422 304° West 427 491 36,000  Level Memphis Center
Tue 02:57:16 PM 33.9292 -87.9586 303° West 418 481 36,000  Level Memphis Center
Tue 02:58:18 PM 33.9944 -88.0778 303° West 419 482 36,000  Level Memphis Center
Tue 02:59:20 PM 34.0608 -88.1967 304° West 422 486 36,000  Level Memphis Center
Tue 03:00:22 PM 34.1261 -88.3175 303° West 424 488 36,000  Level Memphis Center
Tue 03:01:25 PM 34.1917 -88.4361 304° West 424 488 36,000  Level Memphis Center
Tue 03:02:27 PM 34.2550 -88.5539 303° West 423 487 36,000  Level Memphis Center
Tue 03:03:29 PM 34.3303 -88.6939 303° West 417 480 36,000  Level Memphis Center
Tue 03:04:31 PM 34.3931 -88.8103 303° West 417 480 36,000  Level Memphis Center
Tue 03:05:33 PM 34.4511 -88.9175 303° West 417 480 36,000  Level Memphis Center
Tue 03:06:35 PM 34.5250 -89.0569 303° West 414 476 36,000  Level Memphis Center
Tue 03:07:37 PM 34.5869 -89.1733 303° West 413 475 36,000  Level Memphis Center
Tue 03:08:39 PM 34.6492 -89.2886 303° West 413 475 36,000  Level Memphis Center
Tue 03:09:42 PM 34.7111 -89.4047 303° West 413 475 36,000  Level Memphis Center
Tue 03:10:44 PM 34.7733 -89.5211 303° West 413 475 36,000  Level Memphis Center
Tue 03:11:46 PM 34.8367 -89.6400 303° West 407 468 36,000  Level Memphis Center
Tue 03:12:48 PM 34.8997 -89.7594 303° West 409 471 36,000  Level Memphis Center
Tue 03:13:50 PM 34.9664 -89.8872 303° West 412 474 36,000  Level Memphis Center
Tue 03:14:52 PM 35.0294 -90.0036 304° West 412 474 36,000  Level Memphis Center
Tue 03:15:54 PM 35.1217 -90.1272 312° West 411 473 36,000  Level Memphis Center
Tue 03:16:56 PM 35.1992 -90.2344 312° West 417 480 36,000  Level Memphis Center
Tue 03:17:59 PM 35.2778 -90.3419 312° West 419 482 36,000  Level Memphis Center
Tue 03:19:01 PM 35.3561 -90.4519 311° West 423 487 36,000  Level Memphis Center
Tue 03:20:03 PM 35.4364 -90.5625 312° West 431 496 36,000  Level Memphis Center
Tue 03:21:05 PM 35.5164 -90.6731 312° West 431 496 36,000  Level Memphis Center
Tue 03:22:07 PM 35.6108 -90.8033 312° West 430 495 36,000  Level Memphis Center
Tue 03:23:09 PM 35.6883 -90.9125 311° West 429 494 36,000  Level Memphis Center
Tue 03:24:11 PM 35.7650 -91.0217 311° West 428 493 36,000  Level Memphis Center
Tue 03:25:13 PM 35.8442 -91.1317 312° West 428 493 36,000  Level Memphis Center
Tue 03:26:16 PM 35.9228 -91.2428 311° West 428 493 36,000  Level Memphis Center
Tue 03:27:18 PM 36.0158 -91.3753 311° West 428 493 36,000  Level Memphis Center
Tue 03:28:20 PM 36.0936 -91.4856 311° West 428 493 36,000  Level Memphis Center
Tue 03:29:22 PM 36.1700 -91.5964 311° West 426 490 36,000  Level Memphis Center
Tue 03:30:24 PM 36.2467 -91.7061 311° West 426 490 36,000  Level Memphis Center
Tue 03:31:26 PM 36.3222 -91.8131 311° West 427 491 36,000  Level Memphis Center
Tue 03:32:28 PM 36.4139 -91.9458 311° West 427 491 36,000  Level Memphis Center
Tue 03:33:31 PM 36.4947 -92.0636 311° West 425 489 36,000  Level Memphis Center
Tue 03:34:33 PM 36.5714 -92.1744 311° West 425 489 36,000  Level Memphis Center
Tue 03:35:35 PM 36.6481 -92.2842 311° West 422 486 36,000  Level Memphis Center
Tue 03:36:37 PM 36.7247 -92.3972 310° West 422 486 36,000  Level Memphis Center
Tue 03:37:39 PM 36.8000 -92.5089 310° West 422 486 36,000  Level Memphis Center
Tue 03:38:37 PM 36.8767 -92.6206 311° West 422 486 36,000  Level Kansas City Center
Tue 03:39:39 PM 36.9528 -92.7325 310° West 422 486 36,000  Level Kansas City Center
Tue 03:40:42 PM 37.0467 -92.8175 324° Northwest 427 491 36,000  Level Kansas City Center
Tue 03:41:44 PM 37.1672 -92.8061 North 435 501 36,000 -435 Level Kansas City Center
Tue 03:42:46 PM 37.3081 -92.7350 22° Northeast 447 514 35,100 -484 Descending Kansas City Center
Tue 03:43:48 PM 37.4231 -92.6700 24° Northeast 448 516 35,000 -48 Descending Kansas City Center
Tue 03:44:50 PM 37.5386 -92.6044 24° Northeast 449 517 35,000  Level Kansas City Center
Tue 03:45:52 PM 37.6600 -92.5372 24° Northeast 453 521 35,000  Level Kansas City Center
Tue 03:46:54 PM 37.7772 -92.4717 24° Northeast 455 524 35,000  Level Kansas City Center
Tue 03:47:56 PM 37.8958 -92.4058 24° Northeast 459 528 35,000  Level Kansas City Center
Tue 03:48:58 PM 38.0153 -92.3392 24° Northeast 466 536 35,000  Level Kansas City Center
Tue 03:50:00 PM 38.1344 -92.2722 24° Northeast 467 537 35,000  Level Kansas City Center
Tue 03:51:02 PM 38.2583 -92.2019 24° Northeast 463 533 35,000  Level Kansas City Center
Tue 03:52:04 PM 38.3750 -92.1353 24° Northeast 462 532 35,000  Level Kansas City Center
Tue 03:53:06 PM 38.5164 -92.0550 24° Northeast 462 532 35,000  Level Kansas City Center
Tue 03:54:08 PM 38.6333 -91.9869 24° Northeast 462 532 35,000  Level Kansas City Center
Tue 03:55:11 PM 38.7519 -91.9206 24° Northeast 462 532 35,000  Level Kansas City Center
Tue 03:56:13 PM 38.8686 -91.8528 24° Northeast 462 532 35,000  Level Kansas City Center
Tue 03:57:15 PM 38.9861 -91.7839 24° Northeast 462 532 35,000  Level Kansas City Center
Tue 03:58:17 PM 39.0872 -91.6456 47° Northeast 471 542 35,000  Level Kansas City Center
Tue 03:59:19 PM 39.1706 -91.5150 51° Northeast 471 542 35,000  Level Kansas City Center
Tue 04:00:21 PM 39.2547 -91.3850 50° Northeast 471 542 35,000  Level Kansas City Center
Tue 04:01:23 PM 39.3394 -91.2533 50° Northeast 471 542 35,000  Level Kansas City Center
Tue 04:02:25 PM 39.4231 -91.1211 51° Northeast 471 542 35,000  Level Kansas City Center
Tue 04:03:28 PM 39.5067 -90.9872 51° Northeast 472 543 35,000  Level Kansas City Center
Tue 04:04:30 PM 39.6075 -90.8272 51° Northeast 473 544 35,000  Level Kansas City Center
Tue 04:05:32 PM 39.6922 -90.6917 51° Northeast 478 550 35,000  Level Kansas City Center
Tue 04:06:34 PM 39.7686 -90.5697 51° Northeast 481 554 35,000  Level Kansas City Center
Tue 04:07:36 PM 39.8700 -90.4047 51° Northeast 484 557 35,000  Level Kansas City Center
Tue 04:08:38 PM 39.9572 -90.2661 51° Northeast 491 565 35,000  Level Kansas City Center
Tue 04:09:40 PM 40.0553 -90.1519 42° Northeast 483 556 35,000 -92 Level Kansas City Center
Tue 04:10:49 PM 40.1733 -90.0183 41° Northeast 475 547 34,800 -458 Descending Chicago Center
Tue 04:11:51 PM 40.2753 -89.9039 41° Northeast 483 556 34,000 -823 Descending Chicago Center
Tue 04:12:53 PM 40.3769 -89.7875 41° Northeast 486 559 33,100 -1,161 Descending Chicago Center
Tue 04:13:55 PM 40.4831 -89.6644 41° Northeast 480 552 31,600 -1,548 Descending Chicago Center
Tue 04:14:57 PM 40.5967 -89.5364 41° Northeast 488 562 29,900 -1,790 Descending Chicago Center
Tue 04:15:59 PM 40.6958 -89.4219 41° Northeast 485 558 27,900 -2,129 Descending Chicago Center
Tue 04:17:01 PM 40.7939 -89.3061 42° Northeast 478 550 25,500 -2,371 Descending Chicago Center
Tue 04:18:03 PM 40.8897 -89.1933 42° Northeast 470 541 23,000 -2,400 Descending Chicago Center
Tue 04:19:06 PM 40.9822 -89.0831 42° Northeast 453 521 20,500 -2,400 Descending Chicago Center
Tue 04:20:08 PM 41.0822 -88.9642 42° Northeast 433 498 18,000 -2,274 Descending Chicago Center
Tue 04:21:10 PM 41.1678 -88.8600 42° Northeast 421 484 15,800 -2,274 Descending Chicago Center
Tue 04:22:12 PM 41.2644 -88.7425 42° Northeast 408 470 13,300 -2,226 Descending Chicago Center
Tue 04:23:14 PM 41.3442 -88.6453 42° Northeast 393 452 11,200 -1,113 Descending Chicago Center
Tue 04:24:16 PM 41.4217 -88.5508 42° Northeast 384 442 11,000 -97 Descending Chicago Center
Tue 04:25:18 PM 41.5058 -88.4497 42° Northeast 380 437 11,000  Level Chicago Center
Tue 04:26:20 PM 41.5856 -88.3544 42° Northeast 382 440 11,000  Level Chicago Center
Tue 04:27:23 PM 41.6731 -88.2525 41° Northeast 385 443 11,000 -96 Level Chicago Center
Tue 04:28:25 PM 41.7525 -88.1561 42° Northeast 384 442 10,800 -484 Descending Chicago Center
Tue 04:29:27 PM 41.8344 -88.0533 43° Northeast 376 433 10,000 -629 Descending Chicago Center
Tue 04:30:29 PM 41.8822 -87.9447 59° Northeast 326 375 9,500 -1,065 Descending Chicago Center
Tue 04:31:31 PM 41.8839 -87.8306 89° East 309 356 7,800 -1,694 Descending Chicago Center
Tue 04:32:33 PM 41.8842 -87.7111 90° East 300 345 6,000 -1,344 Descending Chicago Center
Tue 04:33:36 PM 41.9328 -87.6661 35° Northeast 239 275 5,000 -1,104 Descending Chicago Center
Tue 04:34:38 PM 41.9661 -87.7278 306° West 189 217 3,700 -1,306 Descending Chicago Center
Tue 04:35:40 PM 41.9842 -87.7800 295° West 163 188 2,300 -1,065 Descending Chicago Center
Tue 04:36:42 PM 41.9836 -87.8358 269° West 138 159 1,500 -726 Descending Chicago Center
Tue 04:37:44 PM 41.9836 -87.8817 270° West 131 151 800 -677 Descending Chicago Center
Tue 04:39:00 PM 41.9793 -87.9074 90° East  Level Estimated

Login

Don't have an account? Register now (free) for customized features, flight alerts, and more!